Time;durP1;ratioP1;P1;durP2;ratioP2;P2;SDS_P1;SDS_P2;PMS_P1;PMS_P2;Temp;Humidity;BMP_temperature;BMP_pressure;BME280_temperature;BME280_humidity;BME280_pressure;Samples;Min_cycle;Max_cycle;Signal;HPM_P1;HPM_P2
2021/01/13 00:00:08;;;;;;;21.67;10.10;;;3.60;99.90;;;;;;5026528;28;20489;-73
2021/01/13 00:02:34;;;;;;;28.38;11.57;;;3.70;99.90;;;;;;5025874;28;20428;-73
2021/01/13 00:04:59;;;;;;;30.40;11.60;;;3.70;99.90;;;;;;5021761;28;20041;-73
2021/01/13 00:07:25;;;;;;;33.85;12.75;;;3.70;99.90;;;;;;5031274;28;20033;-73
2021/01/13 00:09:51;;;;;;;27.02;10.85;;;3.70;99.90;;;;;;5021358;28;20045;-73
2021/01/13 00:12:16;;;;;;;29.92;12.02;;;3.70;99.90;;;;;;5022638;28;20100;-72
2021/01/13 00:14:45;;;;;;;32.90;12.75;;;3.80;99.90;;;;;;5030613;28;21002;-72
2021/01/13 00:17:11;;;;;;;34.67;12.55;;;3.80;99.90;;;;;;5037262;28;20052;-72
2021/01/13 00:19:37;;;;;;;39.75;12.45;;;3.70;99.90;;;;;;5032777;28;20068;-74
2021/01/13 00:22:03;;;;;;;32.72;14.00;;;3.80;99.90;;;;;;5020074;28;20026;-73
2021/01/13 00:24:29;;;;;;;27.98;12.88;;;3.80;99.90;;;;;;5026470;28;20061;-74
2021/01/13 00:26:59;;;;;;;28.65;12.90;;;3.80;99.90;;;;;;5022687;28;20040;-73
2021/01/13 00:29:25;;;;;;;32.15;13.52;;;3.90;99.90;;;;;;5028643;28;20034;-73
2021/01/13 00:31:55;;;;;;;34.97;13.13;;;3.80;99.90;;;;;;5023647;28;20041;-72
2021/01/13 00:34:21;;;;;;;38.80;14.15;;;3.90;99.90;;;;;;5022741;28;20398;-73
2021/01/13 00:36:47;;;;;;;21.20;13.10;;;3.80;99.90;;;;;;5024052;28;20022;-72
2021/01/13 00:39:13;;;;;;;27.17;13.57;;;3.80;99.90;;;;;;5029156;28;20029;-72
2021/01/13 00:41:39;;;;;;;29.55;16.48;;;3.80;99.90;;;;;;5020334;28;20474;-73
2021/01/13 00:44:05;;;;;;;32.20;15.27;;;3.80;99.90;;;;;;5024714;28;20111;-72
2021/01/13 00:46:36;;;;;;;35.03;15.05;;;3.90;99.90;;;;;;5028551;28;20029;-72
2021/01/13 00:49:02;;;;;;;31.48;15.50;;;3.90;99.90;;;;;;5032935;28;20025;-72
2021/01/13 00:51:39;;;;;;;38.28;15.68;;;3.90;99.90;;;;;;5028305;28;20075;-72
2021/01/13 00:54:06;;;;;;;36.03;16.83;;;3.90;99.90;;;;;;5031557;28;20362;-74
2021/01/13 00:56:33;;;;;;;31.38;15.20;;;4.00;99.90;;;;;;5028050;28;20052;-74
2021/01/13 00:58:59;;;;;;;30.58;16.55;;;3.90;99.90;;;;;;5027960;28;20028;-74
2021/01/13 01:01:26;;;;;;;35.50;17.73;;;3.90;99.90;;;;;;5019175;28;20022;-75
2021/01/13 01:03:56;;;;;;;28.20;14.77;;;3.90;99.90;;;;;;5028766;28;20528;-74
2021/01/13 01:06:22;;;;;;;29.73;15.75;;;3.90;99.90;;;;;;5031971;28;20028;-74
2021/01/13 01:08:49;;;;;;;26.35;14.32;;;3.90;99.90;;;;;;5022915;28;20036;-74
2021/01/13 01:11:21;;;;;;;30.95;14.65;;;3.90;99.90;;;;;;5030436;28;20025;-75
2021/01/13 01:13:47;;;;;;;24.05;15.35;;;3.90;99.90;;;;;;5027904;28;20540;-75
2021/01/13 01:16:12;;;;;;;30.27;15.25;;;3.90;99.90;;;;;;5019018;28;20494;-75
2021/01/13 01:18:38;;;;;;;29.55;13.48;;;4.00;99.90;;;;;;5028240;28;20048;-75
2021/01/13 01:21:08;;;;;;;24.67;13.85;;;4.00;99.90;;;;;;5020856;28;20026;-75
2021/01/13 01:23:33;;;;;;;25.73;14.68;;;4.00;99.90;;;;;;5016287;28;20026;-75
2021/01/13 01:26:01;;;;;;;34.00;15.75;;;4.00;99.90;;;;;;5018260;28;20074;-74
2021/01/13 01:28:27;;;;;;;31.63;14.35;;;4.00;99.90;;;;;;5014084;28;20045;-75
2021/01/13 01:30:52;;;;;;;29.60;15.35;;;4.00;99.90;;;;;;5022934;28;20498;-73
2021/01/13 01:33:18;;;;;;;37.08;15.45;;;4.00;99.90;;;;;;5021739;28;20032;-73
2021/01/13 01:35:43;;;;;;;31.45;15.25;;;3.90;99.90;;;;;;5020992;28;20038;-73
2021/01/13 01:38:09;;;;;;;29.95;14.32;;;3.90;99.90;;;;;;5017141;28;20495;-74
2021/01/13 01:40:35;;;;;;;30.63;13.82;;;3.90;99.90;;;;;;5020111;28;20029;-73
2021/01/13 01:43:00;;;;;;;25.02;13.48;;;3.90;99.90;;;;;;5020763;28;20129;-74
2021/01/13 01:45:28;;;;;;;26.80;13.07;;;4.00;99.90;;;;;;5025551;28;20025;-73
2021/01/13 01:48:06;;;;;;;31.58;14.35;;;4.00;99.90;;;;;;5020815;28;20022;-74
2021/01/13 01:50:37;;;;;;;26.05;14.80;;;4.00;99.90;;;;;;5019084;28;20025;-73
2021/01/13 01:53:17;;;;;;;37.15;15.43;;;4.00;99.90;;;;;;5024246;28;20091;-72
2021/01/13 01:55:52;;;;;;;29.95;12.98;;;3.90;99.90;;;;;;5025928;28;20412;-74
2021/01/13 01:58:31;;;;;;;28.33;12.85;;;3.90;99.90;;;;;;5029607;28;20028;-72
2021/01/13 02:00:59;;;;;;;32.03;13.88;;;3.90;99.90;;;;;;5021329;28;20025;-72
2021/01/13 02:03:47;;;;;;;29.92;13.55;;;3.80;99.90;;;;;;5021421;28;20030;-73
2021/01/13 02:06:15;;;;;;;27.45;13.18;;;3.80;99.90;;;;;;5025812;28;20029;-73
2021/01/13 02:08:41;;;;;;;30.92;14.43;;;3.80;99.90;;;;;;5024466;28;20030;-72
2021/01/13 02:11:17;;;;;;;29.17;14.95;;;3.80;99.90;;;;;;5027968;28;20367;-74
2021/01/13 02:13:47;;;;;;;23.15;13.27;;;3.80;99.90;;;;;;5037974;28;20146;-74
2021/01/13 02:16:17;;;;;;;31.45;14.38;;;3.80;99.90;;;;;;5025041;28;20034;-74
2021/01/13 02:18:49;;;;;;;30.10;14.90;;;3.80;99.90;;;;;;5024094;28;20017;-74
2021/01/13 02:21:19;;;;;;;21.83;13.57;;;3.80;99.90;;;;;;5029990;28;20022;-74
2021/01/13 02:23:46;;;;;;;31.88;14.45;;;3.80;99.90;;;;;;5025906;28;20069;-74
2021/01/13 02:26:24;;;;;;;24.40;13.60;;;3.80;99.90;;;;;;5027984;28;20406;-74
2021/01/13 02:29:08;;;;;;;27.23;14.93;;;3.80;99.90;;;;;;5036153;28;20025;-75
2021/01/13 02:31:56;;;;;;;33.30;14.38;;;3.90;99.90;;;;;;5026673;28;20163;-72
2021/01/13 02:34:44;;;;;;;29.88;16.38;;;3.80;99.90;;;;;;5028721;28;20030;-73
2021/01/13 02:37:37;;;;;;;27.95;15.77;;;3.80;99.90;;;;;;5032900;28;20021;-73
2021/01/13 02:40:10;;;;;;;28.30;13.95;;;3.90;99.90;;;;;;5021485;28;20033;-72
2021/01/13 02:42:39;;;;;;;34.80;14.65;;;3.90;99.90;;;;;;5027266;28;20033;-72
2021/01/13 02:45:11;;;;;;;27.23;15.07;;;3.80;99.90;;;;;;5028016;28;20360;-75
2021/01/13 02:48:07;;;;;;;26.15;13.32;;;3.90;99.90;;;;;;5030399;28;20454;-75
2021/01/13 02:50:35;;;;;;;27.00;14.18;;;3.90;99.90;;;;;;5021104;28;20026;-74
2021/01/13 02:53:13;;;;;;;30.58;14.55;;;3.90;99.90;;;;;;5032399;28;20160;-73
2021/01/13 02:56:04;;;;;;;32.42;14.02;;;3.90;99.90;;;;;;5031854;28;20067;-74
2021/01/13 02:58:30;;;;;;;32.85;15.23;;;3.90;99.90;;;;;;5034382;28;20120;-75
2021/01/13 03:00:56;;;;;;;26.20;13.38;;;3.90;99.90;;;;;;5029789;28;20446;-75
2021/01/13 03:03:22;;;;;;;31.10;15.77;;;3.90;99.90;;;;;;5024713;28;20037;-75
2021/01/13 03:05:48;;;;;;;31.08;15.18;;;3.90;99.90;;;;;;5031319;28;20041;-74
2021/01/13 03:08:16;;;;;;;27.38;14.68;;;3.90;99.90;;;;;;5034181;28;20369;-75
2021/01/13 03:10:45;;;;;;;32.67;14.48;;;4.00;99.90;;;;;;5026933;28;20029;-75
2021/01/13 03:13:12;;;;;;;22.50;13.55;;;4.00;99.90;;;;;;5033799;28;20108;-75
2021/01/13 03:15:38;;;;;;;26.65;13.68;;;3.90;99.90;;;;;;5025953;28;20495;-72
2021/01/13 03:18:31;;;;;;;39.55;15.43;;;3.90;99.90;;;;;;5029378;28;20561;-75
2021/01/13 03:21:14;;;;;;;25.35;15.45;;;3.80;99.90;;;;;;5025047;28;20033;-76
2021/01/13 03:23:57;;;;;;;37.22;16.17;;;3.80;99.90;;;;;;5022844;28;20021;-75
2021/01/13 03:26:29;;;;;;;32.65;16.17;;;3.90;99.90;;;;;;5024621;28;20504;-75
2021/01/13 03:28:57;;;;;;;33.55;16.30;;;3.80;99.90;;;;;;5023865;28;20037;-75
2021/01/13 03:31:30;;;;;;;34.60;16.15;;;3.90;99.90;;;;;;5028390;28;20033;-75
2021/01/13 03:34:24;;;;;;;33.72;16.17;;;3.90;99.90;;;;;;5026441;28;20069;-75
2021/01/13 03:37:15;;;;;;;31.88;15.68;;;3.70;99.90;;;;;;5025437;28;20033;-72
2021/01/13 03:39:40;;;;;;;29.50;15.38;;;3.80;99.90;;;;;;5019161;28;20052;-72
2021/01/13 03:42:09;;;;;;;35.28;17.40;;;3.70;99.90;;;;;;5028718;28;20120;-72
2021/01/13 03:44:36;;;;;;;35.40;16.73;;;3.80;99.90;;;;;;5019535;28;20470;-72
2021/01/13 03:47:30;;;;;;;32.13;15.90;;;3.70;99.90;;;;;;5023782;28;20030;-72
2021/01/13 03:50:12;;;;;;;29.67;16.23;;;3.80;99.90;;;;;;5023317;28;20071;-74
2021/01/13 03:53:01;;;;;;;33.78;18.67;;;3.70;99.90;;;;;;5018689;28;20018;-74
2021/01/13 03:55:32;;;;;;;28.42;15.80;;;3.70;99.90;;;;;;5026659;28;20042;-74
2021/01/13 03:57:57;;;;;;;34.72;17.88;;;3.70;99.90;;;;;;5035528;28;20025;-73
2021/01/13 04:00:36;;;;;;;36.90;19.02;;;3.70;99.90;;;;;;5028154;28;20022;-74
2021/01/13 04:03:23;;;;;;;30.02;15.15;;;3.70;99.90;;;;;;5026899;28;20029;-74
2021/01/13 04:06:04;;;;;;;38.80;16.05;;;3.60;99.90;;;;;;5029735;28;20030;-74
2021/01/13 04:08:44;;;;;;;40.97;16.63;;;3.70;99.90;;;;;;5031640;28;20029;-73
2021/01/13 04:11:21;;;;;;;37.13;17.35;;;3.60;99.90;;;;;;5021379;28;20026;-75
2021/01/13 04:13:51;;;;;;;37.05;17.15;;;3.50;99.90;;;;;;5021922;28;20025;-74
2021/01/13 04:16:22;;;;;;;42.25;19.67;;;3.60;99.90;;;;;;5025650;28;20030;-73
2021/01/13 04:18:51;;;;;;;30.63;17.23;;;3.60;99.90;;;;;;5022226;28;20018;-75
2021/01/13 04:21:19;;;;;;;29.90;16.33;;;3.50;99.90;;;;;;5025206;28;20112;-72
2021/01/13 04:23:58;;;;;;;28.30;16.45;;;3.50;99.90;;;;;;5030357;28;20417;-72
2021/01/13 04:26:26;;;;;;;33.88;17.77;;;3.50;99.90;;;;;;5026709;28;20375;-74
2021/01/13 04:28:52;;;;;;;36.92;17.73;;;3.60;99.90;;;;;;5023642;28;20036;-75
2021/01/13 04:31:18;;;;;;;44.45;18.48;;;3.50;99.90;;;;;;5027217;28;20111;-74
2021/01/13 04:33:44;;;;;;;32.00;18.42;;;3.50;99.90;;;;;;5032986;28;20048;-75
2021/01/13 04:36:10;;;;;;;26.08;17.08;;;3.50;99.90;;;;;;5025071;28;20042;-75
2021/01/13 04:38:36;;;;;;;37.55;17.98;;;3.60;99.90;;;;;;5033396;28;20024;-75
2021/01/13 04:41:13;;;;;;;36.22;18.52;;;3.50;99.90;;;;;;5028503;28;20108;-74
2021/01/13 04:43:50;;;;;;;37.03;18.98;;;3.60;99.90;;;;;;5019095;28;20026;-75
2021/01/13 04:46:30;;;;;;;38.53;18.33;;;3.60;99.90;;;;;;5030618;28;20091;-75
2021/01/13 04:49:12;;;;;;;38.55;17.77;;;3.60;99.90;;;;;;5027943;28;20071;-75
2021/01/13 04:51:39;;;;;;;37.72;18.48;;;3.60;99.90;;;;;;5021109;28;20494;-75
2021/01/13 04:54:13;;;;;;;43.70;20.10;;;3.60;99.90;;;;;;5022724;28;20018;-74
2021/01/13 04:57:08;;;;;;;42.08;19.02;;;3.60;99.90;;;;;;5023648;28;20107;-75
2021/01/13 04:59:57;;;;;;;40.20;19.75;;;3.50;99.90;;;;;;5006537;28;20033;-75
2021/01/13 05:02:59;;;;;;;40.10;20.83;;;3.50;99.90;;;;;;5020842;28;20029;-75
2021/01/13 05:05:30;;;;;;;39.38;20.13;;;3.50;99.90;;;;;;5028541;28;20112;-75
2021/01/13 05:08:16;;;;;;;43.50;20.50;;;3.60;99.90;;;;;;5028339;28;20546;-75
2021/01/13 05:10:42;;;;;;;36.88;19.48;;;3.50;99.90;;;;;;5027780;28;20025;-74
2021/01/13 05:13:16;;;;;;;40.05;20.38;;;3.50;99.90;;;;;;5025204;28;20032;-74
2021/01/13 05:15:55;;;;;;;35.42;18.42;;;3.50;99.90;;;;;;5024463;28;20042;-74
2021/01/13 05:18:51;;;;;;;39.65;20.13;;;3.50;99.90;;;;;;5027050;28;20030;-74
2021/01/13 05:21:25;;;;;;;46.45;22.80;;;3.60;99.90;;;;;;5027941;28;20099;-75
2021/01/13 05:23:56;;;;;;;40.33;20.35;;;3.60;99.90;;;;;;5023414;28;20029;-75
2021/01/13 05:26:23;;;;;;;42.00;21.23;;;3.60;99.90;;;;;;5022784;28;20040;-74
2021/01/13 05:29:04;;;;;;;38.20;19.35;;;3.60;99.90;;;;;;5026039;28;20426;-74
2021/01/13 05:31:35;;;;;;;36.55;20.52;;;3.60;99.90;;;;;;5025047;28;21715;-74
2021/01/13 05:34:01;;;;;;;39.67;19.85;;;3.60;99.90;;;;;;5027275;28;20437;-74
2021/01/13 05:36:31;;;;;;;47.15;22.17;;;3.70;99.90;;;;;;5026657;28;20049;-75
2021/01/13 05:39:13;;;;;;;50.20;22.80;;;3.70;99.90;;;;;;5024021;28;20013;-74
2021/01/13 05:41:41;;;;;;;44.33;22.13;;;3.60;99.90;;;;;;5024732;28;20493;-74
2021/01/13 05:44:10;;;;;;;39.95;20.75;;;3.60;99.90;;;;;;5022350;28;20025;-75
2021/01/13 05:46:45;;;;;;;46.45;22.23;;;3.60;99.90;;;;;;5016460;28;20467;-74
2021/01/13 05:49:11;;;;;;;45.70;23.45;;;3.60;99.90;;;;;;5015411;28;20030;-74
2021/01/13 05:51:37;;;;;;;46.40;24.60;;;3.60;99.90;;;;;;5024489;28;20037;-75
2021/01/13 05:54:04;;;;;;;48.67;24.15;;;3.60;99.90;;;;;;5021536;28;20036;-74
2021/01/13 05:56:36;;;;;;;38.97;20.77;;;3.70;99.90;;;;;;5022381;28;20478;-74
2021/01/13 05:59:04;;;;;;;52.07;22.87;;;3.70;99.90;;;;;;5025655;28;20029;-74
2021/01/13 06:01:32;;;;;;;42.75;21.95;;;3.70;99.90;;;;;;5020910;28;20022;-75
2021/01/13 06:03:59;;;;;;;42.72;21.83;;;3.70;99.90;;;;;;5024200;28;20041;-75
2021/01/13 06:06:26;;;;;;;41.88;21.40;;;3.70;99.90;;;;;;5029718;28;20022;-75
2021/01/13 06:08:54;;;;;;;34.70;20.55;;;3.70;99.90;;;;;;5024163;28;20104;-74
2021/01/13 06:11:24;;;;;;;57.55;24.00;;;3.70;99.90;;;;;;5030540;28;20025;-74
2021/01/13 06:13:50;;;;;;;45.50;22.65;;;3.70;99.90;;;;;;5033746;28;20018;-74
2021/01/13 06:16:16;;;;;;;45.38;21.92;;;3.70;99.90;;;;;;5029976;28;20046;-74
2021/01/13 06:18:44;;;;;;;47.85;22.08;;;3.70;99.90;;;;;;5027300;28;20079;-74
2021/01/13 06:21:11;;;;;;;52.17;25.92;;;3.70;99.90;;;;;;5020313;28;20635;-74
2021/01/13 06:23:51;;;;;;;52.83;21.88;;;3.70;99.90;;;;;;5031321;28;20071;-74
2021/01/13 06:26:21;;;;;;;45.40;21.05;;;3.70;99.90;;;;;;5018411;28;20466;-74
2021/01/13 06:28:58;;;;;;;42.67;22.30;;;3.70;99.90;;;;;;5019577;28;20033;-74
2021/01/13 06:31:26;;;;;;;50.83;24.13;;;3.70;99.90;;;;;;5027557;28;20082;-74
2021/01/13 06:34:21;;;;;;;42.95;21.67;;;3.70;99.90;;;;;;5016410;28;20105;-74
2021/01/13 06:37:05;;;;;;;44.20;21.88;;;3.70;99.90;;;;;;5021556;28;20034;-75
2021/01/13 06:39:33;;;;;;;48.85;24.67;;;3.70;99.90;;;;;;5019681;28;20038;-74
2021/01/13 06:41:59;;;;;;;49.20;25.55;;;3.70;99.90;;;;;;5018285;28;20026;-74
2021/01/13 06:44:25;;;;;;;39.30;23.05;;;3.70;99.90;;;;;;5024294;28;20037;-74
2021/01/13 06:46:53;;;;;;;55.38;26.77;;;3.70;99.90;;;;;;5029782;28;20018;-74
2021/01/13 06:49:21;;;;;;;47.47;25.05;;;3.70;99.90;;;;;;5018857;28;20033;-73
2021/01/13 06:51:48;;;;;;;44.20;21.77;;;3.60;99.90;;;;;;5019944;28;20052;-74
2021/01/13 06:54:16;;;;;;;49.22;22.23;;;3.60;99.90;;;;;;5016353;28;20166;-74
2021/01/13 06:56:53;;;;;;;45.38;21.70;;;3.70;99.90;;;;;;5013399;28;20797;-74
2021/01/13 06:59:20;;;;;;;53.75;22.45;;;3.60;99.90;;;;;;5028568;28;20453;-73
2021/01/13 07:01:57;;;;;;;40.60;22.45;;;3.60;99.90;;;;;;5028605;28;20449;-74
2021/01/13 07:04:24;;;;;;;44.80;24.10;;;3.60;99.90;;;;;;5025163;28;20021;-74
2021/01/13 07:07:12;;;;;;;34.90;16.60;;;3.60;99.90;;;;;;5029696;28;20486;-75
2021/01/13 07:09:40;;;;;;;60.55;28.08;;;3.70;99.90;;;;;;5027839;28;20379;-74
2021/01/13 07:12:16;;;;;;;47.00;22.52;;;3.70;99.90;;;;;;5023527;28;20022;-74
2021/01/13 07:14:44;;;;;;;41.20;24.20;;;3.70;99.90;;;;;;5023928;28;20456;-74
2021/01/13 07:17:15;;;;;;;45.05;21.10;;;3.60;99.90;;;;;;5026822;28;20079;-73
2021/01/13 07:19:57;;;;;;;50.40;23.35;;;3.50;99.90;;;;;;5026791;28;20561;-74
2021/01/13 07:22:26;;;;;;;43.05;23.10;;;3.50;99.90;;;;;;5027483;28;20030;-74
2021/01/13 07:24:54;;;;;;;48.22;24.70;;;3.60;99.90;;;;;;5031685;28;20112;-74
2021/01/13 07:27:20;;;;;;;52.67;23.17;;;3.50;99.90;;;;;;5028293;28;20026;-74
2021/01/13 07:29:48;;;;;;;55.63;22.38;;;3.50;99.90;;;;;;5023401;28;20109;-74
2021/01/13 07:32:19;;;;;;;50.60;24.40;;;3.50;99.90;;;;;;5020883;28;20025;-74
2021/01/13 07:34:45;;;;;;;46.50;22.67;;;3.50;99.90;;;;;;5025506;28;20110;-74
2021/01/13 07:37:20;;;;;;;42.45;23.58;;;3.50;99.90;;;;;;5028288;28;20106;-78
2021/01/13 07:39:58;;;;;;;45.40;21.85;;;3.40;99.90;;;;;;5027862;28;20033;-78
2021/01/13 07:42:36;;;;;;;47.65;24.52;;;3.50;99.90;;;;;;5023450;28;20038;-76
2021/01/13 07:45:25;;;;;;;45.28;25.55;;;3.40;99.90;;;;;;5018920;28;20494;-78
2021/01/13 07:48:11;;;;;;;68.20;31.98;;;3.50;99.90;;;;;;5029611;28;20080;-76
2021/01/13 07:50:44;;;;;;;46.00;22.05;;;3.50;99.90;;;;;;5031857;28;20033;-77
2021/01/13 07:53:22;;;;;;;44.17;23.85;;;3.40;99.90;;;;;;5026538;28;20540;-76
2021/01/13 07:55:56;;;;;;;43.47;22.45;;;3.40;99.90;;;;;;5030873;28;20034;-76
2021/01/13 07:58:26;;;;;;;44.78;21.73;;;3.40;99.90;;;;;;5020695;28;20526;-76
2021/01/13 08:01:19;;;;;;;53.70;23.83;;;3.50;99.90;;;;;;5030013;28;20025;-75
2021/01/13 08:04:41;;;;;;;45.00;22.42;;;3.50;99.90;;;;;;5031776;28;20033;-76
2021/01/13 08:07:16;;;;;;;50.00;22.88;;;3.50;99.90;;;;;;5019611;28;20033;-75
2021/01/13 08:09:52;;;;;;;46.88;22.52;;;3.50;99.90;;;;;;5023926;28;20026;-79
2021/01/13 08:13:06;;;;;;;41.50;23.55;;;3.60;99.90;;;;;;5027941;28;20082;-77
2021/01/13 08:15:50;;;;;;;64.35;35.08;;;3.50;99.90;;;;;;5034039;28;20076;-74
2021/01/13 08:18:49;;;;;;;49.92;25.98;;;3.60;99.90;;;;;;5027525;28;20026;-77
2021/01/13 08:21:22;;;;;;;46.22;24.02;;;3.70;99.90;;;;;;5025052;28;20498;-74
2021/01/13 08:24:03;;;;;;;44.63;22.10;;;3.70;99.90;;;;;;5020051;28;20030;-75
2021/01/13 08:26:29;;;;;;;43.72;22.35;;;3.70;99.90;;;;;;5030293;28;20021;-75
2021/01/13 08:28:58;;;;;;;48.97;23.80;;;3.70;99.90;;;;;;5029057;28;20561;-75
2021/01/13 08:31:26;;;;;;;49.22;24.30;;;3.70;99.90;;;;;;5028877;28;20036;-75
2021/01/13 08:34:11;;;;;;;48.55;21.83;;;3.70;99.90;;;;;;5031316;28;20067;-75
2021/01/13 08:36:54;;;;;;;41.30;20.92;;;3.80;99.90;;;;;;5029649;28;20108;-75
2021/01/13 08:39:27;;;;;;;44.42;22.75;;;3.70;99.90;;;;;;5020960;28;20029;-75
2021/01/13 08:41:53;;;;;;;40.20;20.90;;;3.80;99.90;;;;;;5026741;28;20056;-75
2021/01/13 08:44:19;;;;;;;44.50;22.85;;;3.70;99.90;;;;;;5024738;28;20058;-75
2021/01/13 08:47:05;;;;;;;39.03;21.63;;;3.80;99.90;;;;;;5031579;28;20477;-75
2021/01/13 08:49:32;;;;;;;38.63;21.23;;;3.90;99.90;;;;;;5019397;28;20025;-75
2021/01/13 08:52:15;;;;;;;48.92;21.05;;;3.90;99.90;;;;;;5023632;28;20071;-75
2021/01/13 08:54:47;;;;;;;48.65;22.48;;;3.90;99.90;;;;;;5024441;28;20382;-75
2021/01/13 08:57:14;;;;;;;45.40;22.25;;;3.90;99.90;;;;;;5021689;28;20109;-75
2021/01/13 08:59:44;;;;;;;45.60;22.20;;;3.90;99.90;;;;;;5027971;28;20017;-74
2021/01/13 09:02:17;;;;;;;44.38;23.02;;;3.90;99.90;;;;;;5020207;28;20018;-75
2021/01/13 09:04:57;;;;;;;42.88;21.40;;;4.00;99.90;;;;;;5023385;28;20018;-75
2021/01/13 09:07:44;;;;;;;45.88;21.35;;;3.90;99.90;;;;;;5028525;28;20029;-76
2021/01/13 09:10:13;;;;;;;41.72;22.02;;;4.00;99.90;;;;;;5027660;28;20193;-75
2021/01/13 09:12:41;;;;;;;54.17;22.23;;;3.90;99.90;;;;;;5024304;28;20034;-75
2021/01/13 09:15:09;;;;;;;44.45;20.83;;;4.00;99.90;;;;;;5026360;28;20034;-75
2021/01/13 09:17:40;;;;;;;39.92;20.63;;;4.00;99.90;;;;;;5020948;28;20370;-76
2021/01/13 09:20:10;;;;;;;41.13;23.08;;;4.00;99.90;;;;;;5022944;28;20025;-75
2021/01/13 09:22:51;;;;;;;52.85;24.10;;;4.00;99.90;;;;;;5023005;28;20108;-75
2021/01/13 09:25:20;;;;;;;52.38;22.73;;;4.00;99.90;;;;;;5027255;28;20101;-75
2021/01/13 09:27:48;;;;;;;59.33;24.30;;;4.00;99.90;;;;;;5027746;28;20017;-75
2021/01/13 09:30:28;;;;;;;63.70;26.95;;;4.00;99.90;;;;;;5022872;28;20482;-76
2021/01/13 09:32:56;;;;;;;42.78;25.05;;;4.00;99.90;;;;;;5031091;28;20029;-76
2021/01/13 09:35:28;;;;;;;45.67;24.52;;;4.10;99.90;;;;;;5025211;28;20029;-75
2021/01/13 09:38:00;;;;;;;53.05;25.88;;;4.10;99.90;;;;;;5032996;28;20025;-76
2021/01/13 09:40:53;;;;;;;51.22;26.00;;;4.10;99.90;;;;;;5019557;28;20022;-76
2021/01/13 09:43:35;;;;;;;51.45;27.75;;;4.00;99.90;;;;;;5021815;28;20037;-75
2021/01/13 09:46:06;;;;;;;48.75;26.17;;;4.10;99.90;;;;;;5027825;28;20041;-76
2021/01/13 09:48:34;;;;;;;52.83;25.02;;;4.20;99.90;;;;;;5030486;28;20097;-76
2021/01/13 09:51:06;;;;;;;46.88;25.63;;;4.10;99.90;;;;;;5028694;28;20025;-76
2021/01/13 09:53:34;;;;;;;49.65;26.08;;;4.20;99.90;;;;;;5014137;28;20397;-75
2021/01/13 09:56:05;;;;;;;45.13;23.45;;;4.20;99.90;;;;;;5020417;28;20107;-76
2021/01/13 09:58:39;;;;;;;44.92;25.10;;;4.20;99.90;;;;;;5017677;28;20036;-75
2021/01/13 10:01:09;;;;;;;46.20;22.70;;;4.20;99.90;;;;;;5024963;28;20022;-75
2021/01/13 10:03:35;;;;;;;46.00;23.08;;;4.20;99.90;;;;;;5027455;28;20045;-75
2021/01/13 10:06:01;;;;;;;42.22;22.42;;;4.20;99.90;;;;;;5028335;28;20037;-75
2021/01/13 10:08:31;;;;;;;40.75;22.73;;;4.20;99.90;;;;;;5020197;28;20528;-75
2021/01/13 10:11:01;;;;;;;46.83;23.75;;;4.20;99.90;;;;;;5023089;28;20076;-75
2021/01/13 10:13:29;;;;;;;43.67;23.25;;;4.30;99.90;;;;;;5018949;28;20026;-75
2021/01/13 10:16:00;;;;;;;47.47;22.85;;;4.40;99.90;;;;;;5021607;28;20049;-75
2021/01/13 10:18:27;;;;;;;44.67;21.25;;;4.30;99.90;;;;;;5019857;28;20026;-75
2021/01/13 10:20:57;;;;;;;41.85;21.92;;;4.30;99.90;;;;;;5019257;28;20517;-75
2021/01/13 10:23:30;;;;;;;39.50;20.45;;;4.20;99.90;;;;;;5026193;28;20026;-74
2021/01/13 10:26:14;;;;;;;47.28;24.05;;;4.30;99.90;;;;;;5021309;28;20074;-74
2021/01/13 10:28:40;;;;;;;44.90;23.25;;;4.40;99.90;;;;;;5021742;28;20046;-75
2021/01/13 10:31:09;;;;;;;48.97;22.08;;;4.30;99.90;;;;;;5027707;28;20217;-75
2021/01/13 10:33:44;;;;;;;36.67;20.17;;;4.40;99.90;;;;;;5027636;28;20033;-75
2021/01/13 10:36:24;;;;;;;35.75;19.02;;;4.40;99.90;;;;;;5037812;28;20030;-74
2021/01/13 10:38:50;;;;;;;41.47;19.13;;;4.30;99.90;;;;;;5033750;28;20034;-75
2021/01/13 10:41:27;;;;;;;41.33;18.98;;;4.40;99.90;;;;;;5036372;28;20041;-75
2021/01/13 10:44:01;;;;;;;41.08;18.95;;;4.50;99.90;;;;;;5030646;28;20486;-75
2021/01/13 10:46:30;;;;;;;34.53;17.80;;;4.50;99.90;;;;;;5025946;28;20036;-75
2021/01/13 10:49:02;;;;;;;34.67;18.38;;;4.60;99.90;;;;;;5031230;28;20032;-76
2021/01/13 10:51:36;;;;;;;43.28;20.73;;;4.60;99.90;;;;;;5029560;28;20107;-75
2021/01/13 10:54:05;;;;;;;35.95;17.95;;;4.50;99.90;;;;;;5037898;28;20481;-75
2021/01/13 10:56:33;;;;;;;34.97;16.35;;;4.60;99.90;;;;;;5029143;28;20025;-75
2021/01/13 10:59:03;;;;;;;40.35;19.23;;;4.70;99.90;;;;;;5026053;28;20065;-75
2021/01/13 11:01:30;;;;;;;33.22;18.13;;;4.70;99.90;;;;;;5028973;28;20478;-76
2021/01/13 11:03:55;;;;;;;33.22;18.95;;;4.60;99.90;;;;;;5034105;28;20036;-75
2021/01/13 11:06:24;;;;;;;39.30;19.48;;;4.70;99.90;;;;;;5034992;28;20021;-75
2021/01/13 11:08:52;;;;;;;40.75;17.92;;;4.70;99.90;;;;;;5029419;28;20056;-75
2021/01/13 11:11:20;;;;;;;41.65;18.92;;;4.70;99.90;;;;;;5025575;28;20033;-75
2021/01/13 11:13:46;;;;;;;43.22;19.48;;;4.80;99.90;;;;;;5033565;28;20113;-75
2021/01/13 11:16:14;;;;;;;38.13;19.98;;;4.80;99.90;;;;;;5025013;28;20080;-75
2021/01/13 11:18:41;;;;;;;38.33;18.15;;;5.00;99.90;;;;;;5026056;28;20045;-75
2021/01/13 11:21:08;;;;;;;35.17;18.67;;;4.90;99.90;;;;;;5028775;28;20409;-75
2021/01/13 11:23:42;;;;;;;38.20;18.95;;;4.80;99.90;;;;;;5033106;28;20033;-75
2021/01/13 11:26:08;;;;;;;41.20;18.70;;;4.90;99.90;;;;;;5031431;28;20100;-75
2021/01/13 11:28:35;;;;;;;36.55;18.75;;;4.90;99.90;;;;;;5023334;28;20165;-75
2021/01/13 11:31:01;;;;;;;38.13;18.90;;;4.90;99.90;;;;;;5023659;28;20018;-75
2021/01/13 11:33:26;;;;;;;40.55;17.77;;;5.00;99.90;;;;;;5030892;28;20017;-75
2021/01/13 11:35:55;;;;;;;33.42;19.08;;;5.10;99.90;;;;;;5032273;28;20118;-75
2021/01/13 11:38:32;;;;;;;44.17;19.13;;;5.00;99.90;;;;;;5016675;28;20026;-75
2021/01/13 11:41:31;;;;;;;40.13;22.58;;;5.20;99.90;;;;;;5029732;28;20025;-75
2021/01/13 11:44:12;;;;;;;38.60;20.33;;;5.20;99.90;;;;;;5021611;28;20397;-75
2021/01/13 11:46:42;;;;;;;31.70;17.17;;;5.30;99.90;;;;;;5017029;28;20025;-75
2021/01/13 11:49:30;;;;;;;39.78;18.85;;;5.30;99.90;;;;;;5027846;28;20017;-75
2021/01/13 11:51:59;;;;;;;36.25;17.98;;;5.30;99.90;;;;;;5035333;28;20112;-75
2021/01/13 11:54:29;;;;;;;38.63;18.42;;;5.30;99.90;;;;;;5028686;28;20033;-75
2021/01/13 11:57:15;;;;;;;33.65;17.35;;;5.40;99.90;;;;;;5031773;28;20038;-75
2021/01/13 11:59:41;;;;;;;34.55;17.73;;;5.40;99.90;;;;;;5035532;28;20363;-75
2021/01/13 12:02:18;;;;;;;38.97;16.83;;;5.40;99.90;;;;;;5027642;28;20037;-76
2021/01/13 12:04:44;;;;;;;42.22;17.55;;;5.40;99.90;;;;;;5021076;28;20117;-74
2021/01/13 12:07:10;;;;;;;39.33;18.10;;;5.50;99.90;;;;;;5034968;28;20092;-74
2021/01/13 12:09:36;;;;;;;42.97;19.85;;;5.50;99.90;;;;;;5026020;28;20648;-74
2021/01/13 12:12:06;;;;;;;34.00;19.25;;;5.70;99.90;;;;;;5019191;28;20551;-75
2021/01/13 12:14:43;;;;;;;34.13;17.60;;;5.60;99.90;;;;;;5026139;28;20452;-75
2021/01/13 12:17:09;;;;;;;32.10;16.52;;;5.50;99.90;;;;;;5028196;28;20025;-75
2021/01/13 12:19:40;;;;;;;33.58;15.88;;;5.70;99.90;;;;;;5024376;28;20033;-75
2021/01/13 12:22:06;;;;;;;34.25;16.00;;;5.70;99.90;;;;;;5021404;28;20038;-75
2021/01/13 12:24:42;;;;;;;36.85;16.63;;;5.70;99.90;;;;;;5024330;28;20028;-75
2021/01/13 12:27:21;;;;;;;33.78;15.55;;;5.60;99.90;;;;;;5032781;28;20095;-75
2021/01/13 12:30:04;;;;;;;30.45;14.65;;;5.70;99.90;;;;;;5020802;28;20071;-75
2021/01/13 12:32:31;;;;;;;34.45;14.60;;;5.80;99.90;;;;;;5026617;28;20148;-75
2021/01/13 12:34:57;;;;;;;29.02;14.15;;;5.70;99.90;;;;;;5030200;28;20554;-75
2021/01/13 12:37:22;;;;;;;28.08;13.45;;;5.80;99.90;;;;;;5034880;28;20053;-75
2021/01/13 12:39:58;;;;;;;21.35;10.85;;;5.80;99.90;;;;;;5029564;28;20587;-75
2021/01/13 12:42:30;;;;;;;22.92;9.90;;;5.90;99.90;;;;;;5031155;28;20057;-75
2021/01/13 12:44:59;;;;;;;19.45;9.05;;;5.80;99.90;;;;;;5025790;28;20541;-74
2021/01/13 12:47:27;;;;;;;26.65;8.43;;;5.80;99.90;;;;;;5025469;28;20044;-74
2021/01/13 12:49:54;;;;;;;19.63;7.57;;;5.80;99.90;;;;;;5027322;28;20040;-75
2021/01/13 12:52:20;;;;;;;19.92;7.22;;;5.90;99.90;;;;;;5030668;28;20017;-74
2021/01/13 12:54:46;;;;;;;18.55;7.47;;;5.80;99.90;;;;;;5027174;28;20120;-74
2021/01/13 12:57:12;;;;;;;18.05;7.47;;;5.70;99.90;;;;;;5029331;28;20505;-75
2021/01/13 12:59:39;;;;;;;23.60;7.40;;;5.70;99.90;;;;;;5029791;28;20179;-75
2021/01/13 13:02:05;;;;;;;19.08;8.00;;;5.70;99.90;;;;;;5026524;28;20021;-75
2021/01/13 13:04:31;;;;;;;14.95;7.70;;;5.70;99.90;;;;;;5026544;28;20029;-76